Time;durP1;ratioP1;P1;durP2;ratioP2;P2;SDS_P1;SDS_P2;PMS_P1;PMS_P2;Temp;Humidity;BMP_temperature;BMP_pressure;BME280_temperature;BME280_humidity;BME280_pressure;Samples;Min_cycle;Max_cycle;Signal;HPM_P1;HPM_P2
2021/06/15 00:03:39;;;;;;;9.43;7.43;;;20.20;81.70;;;;;;6150934;23;20395;-90
2021/06/15 00:09:41;;;;;;;11.30;7.50;;;20.20;82.40;;;;;;6190074;23;20408;-90
2021/06/15 00:12:23;;;;;;;8.27;7.43;;;20.10;82.50;;;;;;6187700;23;20501;-91
2021/06/15 00:15:04;;;;;;;8.40;7.60;;;20.00;83.20;;;;;;6209695;23;20359;-90
2021/06/15 00:18:21;;;;;;;9.20;7.70;;;20.00;83.70;;;;;;6199885;23;20809;-89
2021/06/15 00:24:16;;;;;;;10.23;8.67;;;19.80;85.10;;;;;;6181721;23;20406;-90
2021/06/15 00:27:12;;;;;;;10.10;8.53;;;19.70;85.70;;;;;;6187364;23;20422;-89
2021/06/15 00:30:12;;;;;;;9.00;7.80;;;19.70;86.20;;;;;;6080692;23;20502;-89
2021/06/15 00:33:09;;;;;;;14.40;10.20;;;19.60;87.00;;;;;;6170862;23;20441;-90
2021/06/15 00:42:26;;;;;;;13.03;8.57;;;19.50;88.40;;;;;;6203086;23;20436;-90
2021/06/15 00:45:20;;;;;;;10.50;8.67;;;19.60;88.80;;;;;;6210398;23;20425;-89
2021/06/15 00:48:03;;;;;;;12.30;10.03;;;19.50;88.80;;;;;;6206400;23;20402;-89
2021/06/15 00:50:38;;;;;;;10.40;9.40;;;19.50;89.20;;;;;;6193455;23;20410;-91
2021/06/15 00:53:30;;;;;;;10.90;9.80;;;19.40;89.30;;;;;;6202615;23;20425;-90
2021/06/15 00:56:17;;;;;;;10.27;9.23;;;19.30;89.70;;;;;;6189012;23;20462;-91
2021/06/15 00:58:52;;;;;;;10.80;8.40;;;19.20;90.00;;;;;;6187962;23;20397;-91
2021/06/15 01:07:11;;;;;;;10.00;8.60;;;19.20;90.20;;;;;;6149821;23;20926;-90
2021/06/15 01:09:58;;;;;;;10.90;7.57;;;19.20;90.30;;;;;;6217275;23;20414;-90
2021/06/15 01:12:49;;;;;;;9.00;8.10;;;19.10;90.00;;;;;;6193571;23;20418;-89
2021/06/15 01:15:31;;;;;;;11.23;8.93;;;19.10;89.80;;;;;;6186227;23;20384;-89
2021/06/15 01:18:05;;;;;;;10.63;8.03;;;19.00;90.00;;;;;;6186333;23;20413;-90
2021/06/15 01:20:41;;;;;;;9.13;7.73;;;19.00;90.40;;;;;;6198868;23;20497;-89
2021/06/15 01:23:40;;;;;;;10.17;8.10;;;18.90;90.70;;;;;;6193788;23;20612;-90
2021/06/15 01:26:21;;;;;;;9.73;8.23;;;18.80;90.90;;;;;;6186589;23;20379;-89
2021/06/15 01:28:56;;;;;;;11.50;8.20;;;18.80;91.20;;;;;;6186464;23;20402;-89
2021/06/15 01:31:35;;;;;;;11.67;9.00;;;18.80;91.30;;;;;;6186243;23;20433;-90
2021/06/15 01:34:07;;;;;;;9.90;8.90;;;18.70;91.30;;;;;;6189427;23;20389;-89
2021/06/15 01:36:42;;;;;;;11.23;8.83;;;18.70;91.30;;;;;;6186519;23;20378;-89
2021/06/15 01:39:16;;;;;;;9.83;8.67;;;18.70;91.40;;;;;;6185900;23;20405;-90
2021/06/15 01:41:45;;;;;;;12.03;8.90;;;18.70;91.70;;;;;;6190781;23;20465;-89
2021/06/15 01:44:22;;;;;;;15.63;8.63;;;18.70;91.70;;;;;;6189780;23;20468;-89
2021/06/15 01:46:57;;;;;;;8.10;7.30;;;18.60;91.20;;;;;;6186374;23;20405;-89
2021/06/15 01:49:31;;;;;;;16.20;9.70;;;18.60;91.50;;;;;;6186166;23;20452;-89
2021/06/15 01:52:06;;;;;;;12.03;8.00;;;18.50;91.70;;;;;;6193582;23;20426;-89
2021/06/15 01:54:44;;;;;;;12.30;9.30;;;18.40;91.90;;;;;;6203925;23;20413;-89
2021/06/15 01:57:17;;;;;;;11.97;9.80;;;18.50;92.10;;;;;;6197396;23;20781;-89
2021/06/15 01:59:51;;;;;;;9.40;7.83;;;18.40;92.30;;;;;;6202309;23;20417;-89
2021/06/15 02:02:30;;;;;;;10.27;8.83;;;18.40;92.40;;;;;;6199419;23;20434;-89
2021/06/15 02:05:08;;;;;;;14.63;9.30;;;18.30;92.40;;;;;;6200092;23;20501;-89
2021/06/15 02:07:52;;;;;;;16.23;10.17;;;18.30;92.60;;;;;;6197458;23;20411;-89
2021/06/15 02:13:18;;;;;;;10.90;9.63;;;18.20;92.90;;;;;;6204846;23;20435;-88
2021/06/15 02:15:57;;;;;;;13.20;11.07;;;18.10;93.30;;;;;;6211541;23;20374;-89
2021/06/15 02:18:31;;;;;;;13.13;10.13;;;18.10;93.60;;;;;;6207785;23;20865;-89
2021/06/15 02:21:05;;;;;;;15.60;11.23;;;18.00;93.70;;;;;;6194222;23;20476;-89
2021/06/15 02:23:43;;;;;;;11.40;9.10;;;18.10;93.80;;;;;;6189326;23;20385;-89
2021/06/15 02:26:15;;;;;;;12.53;9.57;;;18.10;93.50;;;;;;6188776;23;20483;-89
2021/06/15 02:28:47;;;;;;;9.60;8.60;;;18.10;93.40;;;;;;6188682;23;20473;-89
2021/06/15 02:31:21;;;;;;;10.17;9.17;;;18.10;93.40;;;;;;6188707;23;20473;-88
2021/06/15 02:33:57;;;;;;;10.23;7.97;;;18.10;93.30;;;;;;6187270;23;20440;-89
2021/06/15 02:36:39;;;;;;;10.40;8.50;;;18.00;93.50;;;;;;6188050;23;20925;-89
2021/06/15 02:39:11;;;;;;;10.33;8.00;;;17.90;93.70;;;;;;6188618;23;20374;-89
2021/06/15 02:41:42;;;;;;;9.90;7.30;;;17.90;93.90;;;;;;6188038;23;20453;-90
2021/06/15 02:44:18;;;;;;;10.27;7.63;;;17.90;94.10;;;;;;6188559;23;20394;-89
2021/06/15 02:46:52;;;;;;;9.77;8.13;;;17.80;94.10;;;;;;6188481;23;20722;-89
2021/06/15 02:49:27;;;;;;;9.33;8.33;;;17.90;94.10;;;;;;6188662;23;20469;-89
2021/06/15 02:52:07;;;;;;;9.70;7.90;;;17.80;94.10;;;;;;6188193;23;20436;-89
2021/06/15 02:54:47;;;;;;;11.67;9.07;;;17.70;94.30;;;;;;6188506;23;20429;-89
2021/06/15 02:57:23;;;;;;;10.70;8.77;;;17.70;94.50;;;;;;6188716;23;20445;-89
2021/06/15 02:59:59;;;;;;;9.50;8.60;;;17.70;94.80;;;;;;6212397;23;20409;-90
2021/06/15 03:02:30;;;;;;;12.53;9.00;;;17.70;94.70;;;;;;6206818;23;21067;-89
2021/06/15 03:05:00;;;;;;;9.60;8.60;;;17.60;94.80;;;;;;6191402;23;20691;-89
2021/06/15 03:07:45;;;;;;;13.37;9.57;;;17.70;94.90;;;;;;6206783;23;20386;-89
2021/06/15 03:10:27;;;;;;;9.63;8.63;;;17.70;94.80;;;;;;6207808;23;20413;-89
2021/06/15 03:13:04;;;;;;;9.63;8.23;;;17.70;94.90;;;;;;6189297;23;20420;-91
2021/06/15 03:15:42;;;;;;;12.73;9.43;;;17.60;94.70;;;;;;6195705;23;20464;-90
2021/06/15 03:18:26;;;;;;;11.50;10.13;;;17.60;94.80;;;;;;6193583;23;20382;-90
2021/06/15 03:21:07;;;;;;;11.97;8.67;;;17.40;95.10;;;;;;6197146;23;20453;-91
2021/06/15 03:23:54;;;;;;;13.10;9.07;;;17.30;95.60;;;;;;6212684;23;20414;-89
2021/06/15 03:29:30;;;;;;;11.67;8.23;;;17.30;96.10;;;;;;6190662;23;20394;-90
2021/06/15 03:32:04;;;;;;;10.53;7.87;;;17.30;96.10;;;;;;6202630;23;20452;-89
2021/06/15 03:34:34;;;;;;;10.47;8.80;;;17.30;96.00;;;;;;6202031;23;20423;-89
2021/06/15 03:37:04;;;;;;;13.10;8.63;;;17.30;96.00;;;;;;6188724;23;20410;-89
2021/06/15 03:39:33;;;;;;;9.80;8.60;;;17.30;96.70;;;;;;6188480;23;20477;-90
2021/06/15 03:42:02;;;;;;;11.90;7.13;;;17.30;96.40;;;;;;6195380;23;20822;-90
2021/06/15 03:44:29;;;;;;;10.20;9.10;;;17.30;96.90;;;;;;6223877;23;20430;-91
2021/06/15 03:46:59;;;;;;;9.80;8.27;;;17.20;97.00;;;;;;6243550;22;20475;-90
2021/06/15 03:49:29;;;;;;;11.90;10.70;;;17.30;97.10;;;;;;6222408;23;20436;-91
2021/06/15 03:52:04;;;;;;;10.37;8.67;;;17.30;97.30;;;;;;6205343;23;20425;-90
2021/06/15 03:54:33;;;;;;;9.43;8.50;;;17.30;97.30;;;;;;6198018;23;20388;-91
2021/06/15 03:57:02;;;;;;;12.93;9.03;;;17.30;97.20;;;;;;6213337;23;20410;-91
2021/06/15 03:59:32;;;;;;;10.73;7.90;;;17.30;97.10;;;;;;6191050;23;20456;-90
2021/06/15 04:02:03;;;;;;;12.40;10.10;;;17.30;96.80;;;;;;6194424;23;20461;-90
2021/06/15 04:04:36;;;;;;;9.37;8.13;;;17.30;96.80;;;;;;6200795;23;20402;-91
2021/06/15 04:07:07;;;;;;;10.93;8.57;;;17.30;96.80;;;;;;6191099;23;20397;-91
2021/06/15 04:09:41;;;;;;;12.70;8.40;;;17.30;97.00;;;;;;6188751;23;20881;-91
2021/06/15 04:12:13;;;;;;;15.50;8.23;;;17.40;97.00;;;;;;6209529;23;20497;-92
2021/06/15 04:14:43;;;;;;;12.17;8.30;;;17.40;96.70;;;;;;6213989;23;20389;-91
2021/06/15 04:17:11;;;;;;;9.17;8.27;;;17.50;96.70;;;;;;6199563;23;20389;-91
2021/06/15 04:19:47;;;;;;;13.50;8.60;;;17.50;96.40;;;;;;6212186;23;20429;-92
2021/06/15 04:22:19;;;;;;;13.87;8.70;;;17.40;96.40;;;;;;6207411;23;20480;-90
2021/06/15 04:24:48;;;;;;;9.70;8.53;;;17.40;96.60;;;;;;6210279;23;20411;-90
2021/06/15 04:27:20;;;;;;;13.40;9.00;;;17.40;96.70;;;;;;6210785;23;20413;-90
2021/06/15 04:29:47;;;;;;;10.90;8.33;;;17.40;96.60;;;;;;6191669;23;20394;-91
2021/06/15 04:32:18;;;;;;;13.10;8.77;;;17.40;96.80;;;;;;6201456;23;20439;-90
2021/06/15 04:34:49;;;;;;;14.43;9.30;;;17.40;96.80;;;;;;6193203;23;20390;-91
2021/06/15 04:37:19;;;;;;;15.43;10.50;;;17.50;96.80;;;;;;6201509;23;20415;-89
2021/06/15 04:39:49;;;;;;;15.07;11.20;;;17.50;96.90;;;;;;6194730;23;20485;-90
2021/06/15 04:42:26;;;;;;;11.60;10.37;;;17.50;96.90;;;;;;6190579;23;20440;-92
2021/06/15 04:44:57;;;;;;;12.80;11.40;;;17.50;96.80;;;;;;6188041;23;20403;-92
2021/06/15 04:47:28;;;;;;;12.80;11.40;;;17.50;96.90;;;;;;6188361;23;20542;-91
2021/06/15 04:50:00;;;;;;;16.47;12.10;;;17.60;96.80;;;;;;6188375;23;20401;-91
2021/06/15 04:52:31;;;;;;;13.27;11.97;;;17.60;96.70;;;;;;6188529;23;20437;-89
2021/06/15 04:55:02;;;;;;;11.90;10.77;;;17.60;96.70;;;;;;6187760;23;21033;-91
2021/06/15 04:57:31;;;;;;;11.20;10.10;;;17.60;96.40;;;;;;6197848;23;20405;-92
2021/06/15 05:00:02;;;;;;;10.87;9.77;;;17.60;96.20;;;;;;6199361;23;20404;-91
2021/06/15 05:02:30;;;;;;;12.53;8.63;;;17.70;96.30;;;;;;6187197;23;20444;-91
2021/06/15 05:04:58;;;;;;;14.03;9.93;;;17.80;96.00;;;;;;6188491;23;20416;-92
2021/06/15 05:07:25;;;;;;;10.43;8.13;;;17.80;96.00;;;;;;6202335;23;20426;-91
2021/06/15 05:09:55;;;;;;;9.00;7.70;;;17.90;95.40;;;;;;6206451;23;20411;-90
2021/06/15 05:12:25;;;;;;;12.70;8.40;;;18.00;95.60;;;;;;6205472;23;20424;-90
2021/06/15 05:14:53;;;;;;;13.83;8.27;;;18.10;95.20;;;;;;6191556;23;20395;-90
2021/06/15 05:17:22;;;;;;;8.87;6.90;;;18.10;94.80;;;;;;6189240;23;20406;-91
2021/06/15 05:19:49;;;;;;;10.20;7.90;;;18.20;94.90;;;;;;6187825;23;20406;-90
2021/06/15 05:22:25;;;;;;;12.70;8.27;;;18.50;94.30;;;;;;6191597;23;20778;-90
2021/06/15 05:24:55;;;;;;;13.00;8.33;;;19.20;93.00;;;;;;6190197;23;20406;-85
2021/06/15 05:27:23;;;;;;;8.90;6.77;;;20.10;91.30;;;;;;6190053;23;20436;-86
2021/06/15 05:29:51;;;;;;;7.03;6.33;;;20.80;88.60;;;;;;6186801;23;20485;-87
2021/06/15 05:32:18;;;;;;;8.97;6.87;;;21.50;85.20;;;;;;6186919;23;20444;-87
2021/06/15 05:34:48;;;;;;;7.43;6.60;;;22.30;82.00;;;;;;6187922;23;20402;-87
2021/06/15 05:37:15;;;;;;;10.37;7.43;;;22.80;79.50;;;;;;6192870;23;20392;-86
2021/06/15 05:39:42;;;;;;;8.70;7.90;;;23.20;77.10;;;;;;6191597;23;20421;-86
2021/06/15 05:42:12;;;;;;;9.43;7.97;;;23.60;74.90;;;;;;6191586;23;20456;-85
2021/06/15 05:44:40;;;;;;;7.70;6.30;;;23.80;73.20;;;;;;6191691;23;20416;-86
2021/06/15 05:47:08;;;;;;;6.70;6.10;;;24.00;72.50;;;;;;6209287;23;20433;-90
2021/06/15 05:49:35;;;;;;;7.90;6.50;;;24.30;71.30;;;;;;6205746;23;20418;-88
2021/06/15 05:52:04;;;;;;;7.23;6.53;;;24.70;69.90;;;;;;6190222;23;20414;-87
2021/06/15 05:54:32;;;;;;;9.73;7.03;;;25.10;68.10;;;;;;6187891;23;20406;-88
2021/06/15 05:56:58;;;;;;;11.37;7.10;;;25.50;66.50;;;;;;6188005;23;20417;-88
2021/06/15 05:59:27;;;;;;;8.00;6.50;;;25.70;65.60;;;;;;6187197;23;20404;-87
2021/06/15 06:01:54;;;;;;;8.13;7.10;;;26.00;64.70;;;;;;6197514;23;20454;-87
2021/06/15 06:04:22;;;;;;;12.73;6.30;;;26.30;63.60;;;;;;6192124;23;20414;-89
2021/06/15 06:09:37;;;;;;;9.50;6.63;;;27.10;60.80;;;;;;6170898;23;20405;-90
2021/06/15 06:12:05;;;;;;;7.63;5.93;;;27.50;59.50;;;;;;6198644;23;20959;-88
2021/06/15 06:14:33;;;;;;;9.63;6.40;;;27.70;58.20;;;;;;6187190;23;20853;-87
2021/06/15 06:17:01;;;;;;;8.97;6.13;;;28.30;57.50;;;;;;6183641;23;20772;-87
2021/06/15 06:19:28;;;;;;;9.93;6.50;;;28.60;57.30;;;;;;6184643;23;20412;-87
2021/06/15 06:21:58;;;;;;;11.70;6.07;;;28.60;56.50;;;;;;6191476;23;20460;-88
2021/06/15 06:24:25;;;;;;;8.60;6.40;;;28.80;56.10;;;;;;6196352;23;20426;-89
2021/06/15 06:26:52;;;;;;;8.80;6.37;;;29.10;55.60;;;;;;6185347;23;20412;-87
2021/06/15 06:29:20;;;;;;;9.20;6.93;;;29.40;54.10;;;;;;6185772;23;20405;-87
2021/06/15 06:31:48;;;;;;;10.23;7.27;;;29.40;53.80;;;;;;6187381;23;20429;-87
2021/06/15 06:34:15;;;;;;;9.17;6.40;;;29.70;53.40;;;;;;6187745;23;20404;-85
2021/06/15 06:36:42;;;;;;;7.23;5.90;;;30.00;52.50;;;;;;6202867;23;20401;-87
2021/06/15 06:39:09;;;;;;;9.50;5.60;;;30.40;52.10;;;;;;6202996;23;20390;-89
2021/06/15 06:41:37;;;;;;;9.70;5.90;;;30.40;50.90;;;;;;6187489;23;20820;-86
2021/06/15 06:44:04;;;;;;;9.50;6.80;;;30.70;50.40;;;;;;6184520;23;20416;-87
2021/06/15 06:46:31;;;;;;;10.10;5.87;;;31.00;50.30;;;;;;6185069;23;20398;-86
2021/06/15 06:48:59;;;;;;;12.67;6.50;;;31.60;49.60;;;;;;6185193;23;20749;-87
2021/06/15 06:51:26;;;;;;;8.20;5.70;;;31.50;48.70;;;;;;6184181;23;20478;-88
2021/06/15 06:53:53;;;;;;;7.47;5.97;;;32.00;49.00;;;;;;6184784;23;20409;-88
2021/06/15 06:56:20;;;;;;;8.00;5.00;;;31.90;47.80;;;;;;6188781;23;20414;-85
2021/06/15 06:58:47;;;;;;;11.20;6.17;;;32.30;47.10;;;;;;6184821;23;20406;-86
2021/06/15 07:01:14;;;;;;;7.67;4.63;;;33.00;46.70;;;;;;6184248;23;20441;-87
2021/06/15 07:03:41;;;;;;;8.07;4.70;;;32.90;45.20;;;;;;6188879;23;20413;-85
2021/06/15 07:06:09;;;;;;;7.57;4.80;;;32.50;45.80;;;;;;6210630;23;20386;-84
2021/06/15 07:08:35;;;;;;;8.20;5.10;;;32.60;45.80;;;;;;6203093;23;20433;-86
2021/06/15 07:11:02;;;;;;;8.80;4.90;;;32.90;45.60;;;;;;6199092;23;20394;-84
2021/06/15 07:13:29;;;;;;;7.03;5.73;;;33.60;44.90;;;;;;6212543;23;20414;-86
2021/06/15 07:15:55;;;;;;;11.13;5.97;;;33.40;44.00;;;;;;6202406;23;20432;-87
2021/06/15 07:18:22;;;;;;;11.00;4.80;;;33.80;44.40;;;;;;6187337;23;20723;-86
2021/06/15 07:20:49;;;;;;;10.03;5.30;;;33.90;43.20;;;;;;6197602;23;20406;-86
2021/06/15 07:23:17;;;;;;;6.80;4.50;;;34.30;42.80;;;;;;6198355;23;20441;-84
2021/06/15 07:25:44;;;;;;;7.10;4.93;;;34.70;41.50;;;;;;6213825;23;20466;-85
2021/06/15 07:28:10;;;;;;;7.63;4.83;;;35.10;40.80;;;;;;6196535;23;20406;-91
2021/06/15 07:30:38;;;;;;;8.33;4.90;;;35.30;40.50;;;;;;6190981;23;20429;-91
2021/06/15 07:33:17;;;;;;;9.77;4.60;;;35.80;40.50;;;;;;6191510;23;20461;-91
2021/06/15 07:35:44;;;;;;;8.03;4.77;;;35.90;39.70;;;;;;6191537;23;20409;-91
2021/06/15 07:38:53;;;;;;;7.57;4.70;;;36.20;38.80;;;;;;6213127;23;20426;-92
2021/06/15 07:41:27;;;;;;;9.83;4.60;;;36.30;38.90;;;;;;6165235;23;20983;-91
2021/06/15 07:43:56;;;;;;;12.17;6.13;;;36.20;38.00;;;;;;6188246;23;20429;-91
2021/06/15 07:46:46;;;;;;;7.03;4.67;;;36.40;38.70;;;;;;6189445;23;20766;-91
2021/06/15 07:49:18;;;;;;;6.80;3.77;;;36.10;37.70;;;;;;6192862;23;20496;-91
2021/06/15 07:52:27;;;;;;;5.93;3.63;;;36.00;38.20;;;;;;6187982;23;20434;-91
2021/06/15 07:54:54;;;;;;;5.20;4.00;;;36.60;38.00;;;;;;6187626;23;21017;-91
2021/06/15 07:57:34;;;;;;;7.90;4.37;;;37.30;36.60;;;;;;6188361;23;20493;-91
2021/06/15 08:03:01;;;;;;;6.27;4.23;;;37.60;35.80;;;;;;6181717;23;20913;-91
2021/06/15 08:05:39;;;;;;;6.10;4.60;;;38.20;36.10;;;;;;6187275;23;20419;-90
2021/06/15 08:14:07;;;;;;;8.30;5.30;;;37.20;35.60;;;;;;6154669;23;20414;-92
2021/06/15 08:28:23;;;;;;;;;;;;;;;;;;;;;
2021/06/15 08:34:43;;;;;;;6.17;3.43;;;39.70;32.40;;;;;;5956888;23;20406;-90
2021/06/15 08:37:53;;;;;;;7.60;4.83;;;39.80;32.40;;;;;;5953643;23;20500;-90
2021/06/15 08:40:30;;;;;;;6.40;4.07;;;39.80;31.80;;;;;;6192118;23;20410;-90
2021/06/15 08:43:57;;;;;;;7.07;3.60;;;40.20;31.60;;;;;;6208076;23;20456;-90
2021/06/15 08:49:49;;;;;;;5.50;3.40;;;40.10;31.70;;;;;;6080116;23;20481;-91
2021/06/15 09:06:16;;;;;;;6.23;4.23;;;41.50;29.80;;;;;;6145117;23;20419;-89
2021/06/15 09:09:35;;;;;;;5.63;3.83;;;40.80;29.50;;;;;;6229529;23;20485;-89
2021/06/15 09:13:07;;;;;;;5.97;3.40;;;40.20;29.90;;;;;;6213596;23;20460;-89
2021/06/15 09:16:36;;;;;;;5.87;3.70;;;40.00;30.40;;;;;;6067264;23;20496;-91
2021/06/15 09:20:08;;;;;;;;;;;;;;;;;;;;;
2021/06/15 09:25:27;;;;;;;6.70;3.97;;;41.80;29.20;;;;;;6213508;23;20445;-90
2021/06/15 09:27:58;;;;;;;6.63;3.43;;;42.50;29.10;;;;;;6221736;23;20405;-90
2021/06/15 09:30:30;;;;;;;5.43;3.40;;;42.50;28.30;;;;;;6221188;23;20427;-89
2021/06/15 09:33:14;;;;;;;6.20;3.37;;;43.00;28.10;;;;;;6204269;23;20474;-90
2021/06/15 09:35:53;;;;;;;7.83;3.77;;;43.50;28.00;;;;;;6208977;23;20406;-90
2021/06/15 09:38:32;;;;;;;6.13;3.50;;;43.20;27.20;;;;;;6203089;23;20405;-90
2021/06/15 09:46:27;;;;;;;5.47;3.53;;;43.80;26.80;;;;;;6161951;22;20490;-87
2021/06/15 09:49:00;;;;;;;5.40;3.60;;;44.00;27.00;;;;;;6236964;23;20560;-88
2021/06/15 09:56:57;;;;;;;5.60;3.80;;;43.60;26.80;;;;;;6212511;22;20819;-88
2021/06/15 09:59:27;;;;;;;6.23;4.20;;;43.60;26.50;;;;;;6222349;23;20400;-89
2021/06/15 10:04:32;;;;;;;11.70;8.80;;;43.40;26.70;;;;;;6205782;23;21246;-89
2021/06/15 10:30:31;;;;;;;4.33;2.93;;;42.10;27.10;;;;;;6187934;23;20859;-90
2021/06/15 10:33:00;;;;;;;5.43;3.23;;;42.20;26.80;;;;;;6171777;23;21034;-89
2021/06/15 10:35:41;;;;;;;5.83;3.00;;;42.70;26.80;;;;;;6158346;23;20390;-89
2021/06/15 10:38:12;;;;;;;5.03;3.20;;;43.10;26.20;;;;;;6161275;23;20655;-90
2021/06/15 10:40:43;;;;;;;7.00;3.80;;;43.00;26.40;;;;;;6158785;23;20387;-88
2021/06/15 10:43:48;;;;;;;5.03;2.97;;;43.40;26.30;;;;;;6162896;23;20454;-89
2021/06/15 10:50:21;;;;;;;5.50;3.10;;;43.40;26.20;;;;;;6163475;23;20421;-89
2021/06/15 10:53:08;;;;;;;4.57;2.87;;;44.60;25.30;;;;;;6160162;23;20481;-91
2021/06/15 10:55:45;;;;;;;5.20;2.73;;;45.50;24.50;;;;;;6160848;23;20481;-90
2021/06/15 10:58:13;;;;;;;4.93;3.00;;;45.30;24.50;;;;;;6162972;23;20414;-90
2021/06/15 11:13:50;;;;;;;6.90;2.90;;;45.30;24.00;;;;;;5942241;24;20571;-89
2021/06/15 11:16:45;;;;;;;5.27;2.53;;;44.80;24.00;;;;;;5968389;24;20413;-90
2021/06/15 11:20:06;;;;;;;;;;;;;;;;;;;;;
2021/06/15 11:22:40;;;;;;;5.03;2.97;;;44.10;24.00;;;;;;6104551;23;20445;-89
2021/06/15 11:25:14;;;;;;;5.70;2.80;;;42.20;25.70;;;;;;6199681;23;20485;-90
2021/06/15 11:31:54;;;;;;;6.13;3.00;;;40.80;26.80;;;;;;6132767;23;20393;-89
2021/06/15 11:49:29;;;;;;;4.17;2.80;;;45.30;23.10;;;;;;6200701;23;20451;-89
2021/06/15 11:52:04;;;;;;;4.73;2.30;;;45.90;22.80;;;;;;6222248;23;20390;-90
2021/06/15 11:54:36;;;;;;;5.50;2.23;;;47.10;21.70;;;;;;6196142;23;20374;-90
2021/06/15 11:57:07;;;;;;;4.33;2.50;;;46.30;21.10;;;;;;6194547;23;20440;-90
2021/06/15 11:59:36;;;;;;;4.27;2.70;;;46.90;21.10;;;;;;6195923;23;20421;-90
2021/06/15 12:05:07;;;;;;;5.10;2.30;;;47.80;20.70;;;;;;6224787;23;20448;-89
2021/06/15 12:07:41;;;;;;;5.93;2.50;;;48.50;19.40;;;;;;6216513;22;20441;-89
2021/06/15 12:10:30;;;;;;;4.53;2.43;;;47.70;19.80;;;;;;6239254;22;20365;-88
2021/06/15 12:13:14;;;;;;;5.03;2.40;;;48.40;20.00;;;;;;6219779;22;20426;-89
2021/06/15 12:16:00;;;;;;;3.73;2.23;;;48.60;19.00;;;;;;6201020;23;20406;-89
2021/06/15 12:18:32;;;;;;;5.27;2.53;;;48.00;19.10;;;;;;6198531;23;20371;-89
2021/06/15 12:21:04;;;;;;;4.67;2.23;;;46.60;20.40;;;;;;6199641;23;20437;-89
2021/06/15 12:23:34;;;;;;;5.77;2.60;;;47.20;20.60;;;;;;6189756;23;20486;-88
2021/06/15 12:26:23;;;;;;;6.10;2.43;;;46.80;20.40;;;;;;6188912;23;20692;-89
2021/06/15 12:28:58;;;;;;;4.10;2.00;;;46.00;20.80;;;;;;6191268;23;20406;-89
2021/06/15 12:31:34;;;;;;;4.70;2.60;;;45.60;20.90;;;;;;6207379;23;20397;-90
2021/06/15 12:34:14;;;;;;;5.80;2.20;;;46.10;20.70;;;;;;6207953;23;20476;-91
2021/06/15 12:36:53;;;;;;;3.40;2.00;;;46.30;19.60;;;;;;6212873;23;20442;-90
2021/06/15 12:44:46;;;;;;;4.23;2.27;;;45.30;20.00;;;;;;6228834;22;20444;-91
2021/06/15 12:47:19;;;;;;;3.50;1.97;;;45.60;20.20;;;;;;6237015;23;20412;-91
2021/06/15 12:49:50;;;;;;;5.03;2.43;;;45.30;20.30;;;;;;6242256;22;20489;-88
2021/06/15 12:52:18;;;;;;;4.40;3.17;;;45.60;20.30;;;;;;6230757;23;20406;-89
2021/06/15 12:55:08;;;;;;;4.90;2.67;;;44.80;20.50;;;;;;6194730;23;20394;-91
2021/06/15 12:57:35;;;;;;;4.30;2.03;;;44.50;21.00;;;;;;6194025;23;20481;-88
2021/06/15 13:00:06;;;;;;;4.00;2.20;;;44.30;21.00;;;;;;6191294;23;20446;-89
2021/06/15 13:02:38;;;;;;;4.53;2.40;;;44.70;21.20;;;;;;6189247;23;20453;-88
2021/06/15 13:05:16;;;;;;;3.47;2.30;;;43.20;22.00;;;;;;6189709;23;20386;-88
2021/06/15 13:08:05;;;;;;;5.20;2.30;;;43.90;22.00;;;;;;6196817;23;20429;-89
2021/06/15 13:10:33;;;;;;;3.77;1.97;;;44.60;20.80;;;;;;6209925;23;20413;-89
2021/06/15 13:13:07;;;;;;;3.33;1.80;;;44.90;20.90;;;;;;6212732;23;20891;-89
2021/06/15 13:15:40;;;;;;;4.47;2.10;;;45.50;20.00;;;;;;6212558;23;20403;-89
2021/06/15 13:18:19;;;;;;;4.00;2.10;;;45.80;19.50;;;;;;6211539;23;20409;-89
2021/06/15 13:21:00;;;;;;;3.80;1.83;;;46.20;19.10;;;;;;6207957;23;20532;-89
2021/06/15 13:23:35;;;;;;;4.10;1.80;;;45.90;19.40;;;;;;6199258;23;20452;-90
2021/06/15 13:26:20;;;;;;;4.03;2.30;;;46.00;19.60;;;;;;6199763;23;20413;-89
2021/06/15 13:29:06;;;;;;;4.10;2.53;;;45.10;20.80;;;;;;6201500;23;20409;-90
2021/06/15 13:31:56;;;;;;;5.30;2.97;;;45.20;21.10;;;;;;6191539;23;20904;-89
2021/06/15 13:34:30;;;;;;;3.73;2.67;;;45.40;21.60;;;;;;6207608;23;20383;-90
2021/06/15 13:37:14;;;;;;;4.10;2.53;;;45.60;21.40;;;;;;6192970;23;20693;-89
2021/06/15 13:39:49;;;;;;;4.10;2.90;;;45.50;21.60;;;;;;6191844;23;20392;-90
2021/06/15 13:46:18;;;;;;;5.83;2.93;;;46.30;20.90;;;;;;6197065;23;20458;-90
2021/06/15 13:54:19;;;;;;;4.03;2.40;;;45.60;20.40;;;;;;6204100;23;20911;-89
2021/06/15 13:57:24;;;;;;;4.83;2.70;;;43.40;21.50;;;;;;6221098;23;20404;-90
2021/06/15 14:03:10;;;;;;;6.13;2.63;;;42.80;22.50;;;;;;6200691;23;20465;-90
2021/06/15 14:11:30;;;;;;;5.13;2.83;;;42.50;22.80;;;;;;6184751;23;20420;-90
2021/06/15 14:14:18;;;;;;;4.60;3.20;;;41.70;22.60;;;;;;6195920;23;20920;-90
2021/06/15 14:16:47;;;;;;;5.57;2.93;;;41.90;22.80;;;;;;6191888;23;20440;-90
2021/06/15 14:19:16;;;;;;;4.67;2.43;;;42.10;22.60;;;;;;6197751;23;20478;-89
2021/06/15 14:22:06;;;;;;;5.17;2.60;;;41.30;22.20;;;;;;6213198;23;20410;-88
2021/06/15 14:24:34;;;;;;;4.83;2.10;;;40.10;23.00;;;;;;6176048;23;20441;-90
2021/06/15 14:27:38;;;;;;;5.20;2.33;;;38.70;24.60;;;;;;6190209;23;20909;-89
2021/06/15 14:30:29;;;;;;;5.13;2.83;;;37.20;25.70;;;;;;6189730;23;20405;-89
2021/06/15 14:33:06;;;;;;;5.27;2.80;;;36.30;26.60;;;;;;6190432;23;20433;-89
2021/06/15 14:35:33;;;;;;;4.23;2.83;;;35.60;27.40;;;;;;6191355;23;20922;-88
2021/06/15 14:38:39;;;;;;;5.53;2.93;;;35.00;28.10;;;;;;6192945;23;20410;-89
2021/06/15 14:41:12;;;;;;;4.47;2.70;;;34.60;29.00;;;;;;6191269;23;20521;-90
2021/06/15 14:43:40;;;;;;;4.33;2.73;;;34.40;29.30;;;;;;6190598;23;20437;-90
2021/06/15 14:46:07;;;;;;;4.87;2.70;;;33.90;29.40;;;;;;6190670;23;20432;-89
2021/06/15 14:52:06;;;;;;;4.80;2.63;;;33.40;29.60;;;;;;6201963;23;20401;-90
2021/06/15 14:54:36;;;;;;;5.03;2.90;;;33.40;29.50;;;;;;6204190;23;20401;-90
2021/06/15 14:57:32;;;;;;;4.37;2.30;;;33.40;29.40;;;;;;6207585;23;20476;-89
2021/06/15 15:00:03;;;;;;;4.83;2.00;;;33.30;29.90;;;;;;6080653;23;21005;-90
2021/06/15 15:05:55;;;;;;;6.30;2.90;;;33.00;30.20;;;;;;6074070;23;20393;-90
2021/06/15 15:09:03;;;;;;;7.30;2.83;;;32.80;31.40;;;;;;6075274;23;20541;-90
2021/06/15 15:15:21;;;;;;;4.27;2.40;;;32.70;31.50;;;;;;6197721;23;20520;-91
2021/06/15 15:17:55;;;;;;;7.83;2.70;;;32.70;31.60;;;;;;6205955;23;20437;-90
2021/06/15 15:20:44;;;;;;;;;;;;;;;;;;;;;
2021/06/15 15:23:36;;;;;;;4.57;3.10;;;32.60;32.10;;;;;;6205544;23;20406;-90
2021/06/15 15:26:10;;;;;;;4.70;2.17;;;32.50;32.00;;;;;;6210064;23;20422;-91
2021/06/15 15:28:58;;;;;;;;;;;;;;;;;;;;;
2021/06/15 15:32:28;;;;;;;4.57;2.43;;;32.30;32.20;;;;;;6203165;23;20374;-89
2021/06/15 15:35:27;;;;;;;4.47;2.30;;;32.30;32.10;;;;;;6156365;23;20436;-89
2021/06/15 15:37:55;;;;;;;4.00;1.90;;;32.20;32.40;;;;;;6058991;23;20410;-87
2021/06/15 15:40:31;;;;;;;5.30;2.60;;;32.20;32.30;;;;;;6202287;23;20421;-89
2021/06/15 15:43:00;;;;;;;4.20;2.50;;;32.20;32.00;;;;;;6203616;23;20414;-89
2021/06/15 15:59:55;;;;;;;4.40;3.20;;;31.60;32.40;;;;;;6201407;22;20385;-91
2021/06/15 16:22:16;;;;;;;;;;;;;;;;;;;;;
2021/06/15 16:31:28;;;;;;;6.83;2.70;;;31.20;33.40;;;;;;6047307;23;20433;-90
2021/06/15 16:34:18;;;;;;;4.07;2.33;;;31.20;33.50;;;;;;6168326;23;20434;-92
2021/06/15 16:40:08;;;;;;;4.40;2.50;;;31.10;34.00;;;;;;6177991;23;20425;-91
2021/06/15 16:43:29;;;;;;;4.53;2.40;;;31.00;34.30;;;;;;6177077;23;20417;-91
2021/06/15 18:16:12;;;;;;;5.37;3.90;;;29.60;36.40;;;;;;6202866;23;20439;-91
2021/06/15 18:22:40;;;;;;;6.47;4.10;;;29.40;36.40;;;;;;5905804;24;20410;-91
2021/06/15 18:29:31;;;;;;;;;;;;;;;;;;;;;
2021/06/15 18:41:57;;;;;;;5.93;4.90;;;28.90;38.20;;;;;;6156436;23;20413;-91
2021/06/15 18:47:52;;;;;;;5.20;3.00;;;28.70;39.30;;;;;;6208895;23;20388;-90
2021/06/15 18:51:05;;;;;;;5.53;3.37;;;28.60;39.40;;;;;;6084894;23;20405;-90
2021/06/15 18:56:36;;;;;;;6.90;3.60;;;28.50;39.90;;;;;;6188034;23;20457;-91
2021/06/15 19:12:55;;;;;;;5.53;2.40;;;28.10;41.00;;;;;;6220343;23;20429;-87
2021/06/15 19:15:22;;;;;;;4.37;2.47;;;28.10;47.90;;;;;;6205483;23;20425;-87
2021/06/15 19:17:48;;;;;;;5.60;3.30;;;27.90;51.30;;;;;;6211383;23;20391;-89
2021/06/15 19:20:22;;;;;;;4.90;3.30;;;27.70;49.40;;;;;;6193466;23;20405;-87
2021/06/15 19:22:49;;;;;;;8.00;4.37;;;27.60;49.10;;;;;;6186148;23;20394;-87
2021/06/15 19:25:15;;;;;;;6.87;4.23;;;27.40;49.20;;;;;;6185949;23;20453;-89
2021/06/15 19:27:42;;;;;;;8.23;4.70;;;27.30;49.30;;;;;;6185053;23;20396;-87
2021/06/15 19:30:12;;;;;;;6.20;4.33;;;27.10;49.60;;;;;;6185696;23;20410;-88
2021/06/15 19:32:38;;;;;;;5.90;4.93;;;27.00;49.10;;;;;;6185215;23;20406;-88
2021/06/15 19:35:06;;;;;;;5.70;3.90;;;27.00;47.40;;;;;;6185767;23;20441;-86